Time;durP1;ratioP1;P1;durP2;ratioP2;P2;SDS_P1;SDS_P2;PMS_P1;PMS_P2;Temp;Humidity;BMP_temperature;BMP_pressure;BME280_temperature;BME280_humidity;BME280_pressure;Samples;Min_cycle;Max_cycle;Signal;HPM_P1;HPM_P2
2022/01/15 00:02:14;;;;;;;;;6.00;5.40;;;;;3.58;85.89;101539.25;5119930;27;9516;-62
2022/01/15 00:04:42;;;;;;;;;5.20;5.20;;;;;3.59;85.38;101533.09;5111129;28;8832;-64
2022/01/15 00:07:10;;;;;;;;;5.60;4.00;;;;;3.58;85.32;101526.09;5111026;28;8863;-63
2022/01/15 00:09:39;;;;;;;;;6.60;5.20;;;;;3.57;85.65;101521.69;5111880;27;8854;-64
2022/01/15 00:12:07;;;;;;;;;6.00;6.00;;;;;3.56;85.55;101517.34;5109508;27;8862;-64
2022/01/15 00:14:38;;;;;;;;;6.20;6.20;;;;;3.56;85.77;101522.59;5115196;27;8822;-64
2022/01/15 00:17:13;;;;;;;;;9.80;9.00;;;;;3.57;85.49;101511.16;5124644;27;8843;-64
2022/01/15 00:19:42;;;;;;;;;3.80;3.80;;;;;3.59;85.84;101509.38;5110546;28;8852;-64
2022/01/15 00:22:10;;;;;;;;;2.40;1.00;;;;;3.62;85.42;101504.03;5110767;27;8859;-64
2022/01/15 00:24:37;;;;;;;;;4.40;4.40;;;;;3.62;85.60;101498.75;5110290;28;8840;-62
2022/01/15 00:27:06;;;;;;;;;8.20;7.00;;;;;3.63;85.52;101502.25;5110027;27;8852;-64
2022/01/15 00:29:33;;;;;;;;;6.00;6.00;;;;;3.65;85.69;101498.69;5111440;28;8832;-65
2022/01/15 00:32:01;;;;;;;;;4.80;4.00;;;;;3.67;85.23;101499.50;5110905;27;8955;-64
2022/01/15 00:34:29;;;;;;;;;6.20;4.00;;;;;3.70;84.91;101491.50;5110236;27;8824;-64
2022/01/15 00:36:57;;;;;;;;;3.60;3.60;;;;;3.71;85.28;101490.59;5111093;27;8855;-64
2022/01/15 00:39:25;;;;;;;;;4.00;4.00;;;;;3.74;85.38;101487.91;5110582;28;8840;-64
2022/01/15 00:41:53;;;;;;;;;4.00;4.00;;;;;3.75;85.37;101490.47;5108926;28;8851;-65
2022/01/15 00:44:20;;;;;;;;;7.00;6.20;;;;;3.79;85.18;101485.97;5129250;27;8865;-64
2022/01/15 00:46:50;;;;;;;;;6.60;6.20;;;;;3.80;84.99;101480.69;5116045;27;8951;-64
2022/01/15 00:49:18;;;;;;;;;4.00;4.00;;;;;3.81;85.32;101473.66;5129922;27;8853;-69
2022/01/15 00:51:46;;;;;;;;;6.40;5.60;;;;;3.82;85.16;101476.22;5129260;27;8845;-64
2022/01/15 00:54:13;;;;;;;;;2.20;1.00;;;;;3.83;84.85;101477.09;5129402;27;8830;-64
2022/01/15 00:56:43;;;;;;;;;9.40;7.00;;;;;3.84;85.60;101460.38;5128856;27;8842;-64
2022/01/15 00:59:11;;;;;;;;;6.40;6.00;;;;;3.86;84.87;101459.44;5128090;27;8863;-64
2022/01/15 01:01:39;;;;;;;;;10.40;9.00;;;;;3.85;85.25;101462.13;5119864;27;8820;-63
2022/01/15 01:04:07;;;;;;;;;7.00;7.00;;;;;3.85;85.10;101472.66;5109219;28;9789;-64
2022/01/15 01:06:34;;;;;;;;;6.80;6.80;;;;;3.84;85.21;101463.03;5109346;27;8828;-63
2022/01/15 01:09:02;;;;;;;;;10.20;8.00;;;;;3.85;85.19;101454.22;5109791;27;8836;-64
2022/01/15 01:11:42;;;;;;;;;8.80;8.00;;;;;3.84;84.96;101450.72;5127861;27;9556;-62
2022/01/15 01:25:16;;;;;;;;;6.00;4.40;;;;;3.80;85.24;101456.13;5097783;27;9531;-64
2022/01/15 01:27:47;;;;;;;;;8.40;6.60;;;;;3.80;85.68;101461.41;5106756;27;8851;-64
2022/01/15 01:30:21;;;;;;;;;10.00;6.20;;;;;3.79;84.98;101459.66;5110749;27;8871;-64
2022/01/15 01:32:54;;;;;;;;;7.80;6.60;;;;;3.79;85.13;101449.09;5126584;27;8869;-63
2022/01/15 01:35:34;;;;;;;;;6.00;6.00;;;;;3.82;85.29;101454.31;5128107;27;9466;-64
2022/01/15 01:38:11;;;;;;;;;4.80;4.00;;;;;3.82;85.46;101444.63;5127388;27;8830;-64
2022/01/15 01:40:42;;;;;;;;;8.20;6.40;;;;;3.83;85.12;101440.22;5127173;27;8833;-64
2022/01/15 01:43:31;;;;;;;;;7.00;4.40;;;;;3.83;84.63;101449.00;5125835;27;8863;-64
2022/01/15 01:46:13;;;;;;;;;9.20;7.40;;;;;3.84;85.59;101442.81;5109339;27;8840;-64
2022/01/15 01:48:41;;;;;;;;;7.80;6.40;;;;;3.85;85.11;101444.56;5116458;27;8869;-63
2022/01/15 01:51:11;;;;;;;;;7.40;5.60;;;;;3.87;85.25;101436.56;5127865;27;8970;-64
2022/01/15 01:53:39;;;;;;;;;5.60;4.00;;;;;3.86;85.34;101425.19;5128709;27;8833;-64
2022/01/15 01:56:07;;;;;;;;;7.00;6.00;;;;;3.88;84.88;101427.78;5126699;27;8842;-64
2022/01/15 01:58:35;;;;;;;;;7.00;7.00;;;;;3.88;85.36;101423.38;5109293;28;9633;-65
2022/01/15 02:01:03;;;;;;;;;7.20;6.20;;;;;3.89;84.69;101413.72;5108063;27;8873;-65
2022/01/15 02:03:30;;;;;;;;;6.80;6.20;;;;;3.90;85.49;101418.06;5125062;27;8880;-65
2022/01/15 02:05:58;;;;;;;;;3.20;3.20;;;;;3.89;84.96;101429.53;5127902;27;8830;-64
2022/01/15 02:08:26;;;;;;;;;2.20;1.00;;;;;3.89;85.36;101429.53;5128095;27;8871;-64
2022/01/15 02:10:54;;;;;;;;;6.40;5.20;;;;;3.89;85.09;101416.34;5128654;27;8876;-64
2022/01/15 02:13:21;;;;;;;;;4.80;4.40;;;;;3.87;84.88;101410.22;5127723;27;8849;-64
2022/01/15 02:15:51;;;;;;;;;5.60;3.60;;;;;3.87;85.17;101410.22;5128878;27;8884;-64
2022/01/15 02:18:19;;;;;;;;;7.00;6.60;;;;;3.87;85.06;101410.22;5117469;27;8870;-62
2022/01/15 02:23:35;;;;;;;;;1.40;1.40;;;;;3.87;85.09;101389.16;5082045;28;8868;-62
2022/01/15 02:26:03;;;;;;;;;6.20;4.40;;;;;3.88;85.21;101409.34;5107285;27;9694;-62
2022/01/15 02:28:31;;;;;;;;;4.00;3.00;;;;;3.87;85.33;101399.69;5107024;28;8878;-64
2022/01/15 02:30:59;;;;;;;;;1.00;1.00;;;;;3.87;85.50;101394.44;5108075;27;8856;-64
2022/01/15 02:33:26;;;;;;;;;7.20;6.60;;;;;3.88;85.07;101380.38;5108532;27;8828;-64
2022/01/15 02:35:54;;;;;;;;;7.40;7.40;;;;;3.87;84.97;101391.78;5107739;27;8862;-64
2022/01/15 02:38:22;;;;;;;;;4.00;3.80;;;;;3.89;85.06;101395.28;5106680;28;8844;-64
2022/01/15 02:40:50;;;;;;;;;6.00;4.00;;;;;3.89;85.19;101392.63;5107487;27;8839;-65
2022/01/15 02:43:19;;;;;;;;;7.20;6.40;;;;;3.90;84.85;101384.66;5106612;28;8866;-65
2022/01/15 02:45:53;;;;;;;;;1.40;1.00;;;;;3.93;84.83;101394.25;5106957;27;8852;-64
2022/01/15 02:48:21;;;;;;;;;2.80;2.80;;;;;3.92;85.36;101384.63;5107355;28;8864;-64
2022/01/15 02:50:49;;;;;;;;;4.80;4.80;;;;;3.93;85.31;101384.59;5115717;27;8844;-67
2022/01/15 02:53:17;;;;;;;;;8.60;7.00;;;;;3.96;85.31;101373.09;5129556;27;8846;-61
2022/01/15 02:55:45;;;;;;;;;4.00;3.60;;;;;3.97;84.60;101369.56;5128174;27;8838;-63
2022/01/15 02:58:12;;;;;;;;;4.80;4.80;;;;;4.00;84.85;101365.06;5124454;27;8854;-64
2022/01/15 03:00:40;;;;;;;;;8.20;7.40;;;;;4.03;84.82;101369.38;5113008;27;8838;-64
2022/01/15 03:03:08;;;;;;;;;0.20;0.00;;;;;4.04;84.95;101357.94;5118221;27;8837;-68
2022/01/15 03:05:37;;;;;;;;;3.40;3.40;;;;;4.06;84.77;101349.06;5128360;27;8842;-64
2022/01/15 03:08:04;;;;;;;;;4.00;3.00;;;;;4.08;85.20;101357.78;5124564;27;8821;-63
2022/01/15 03:10:32;;;;;;;;;7.00;4.00;;;;;4.10;84.77;101353.31;5106150;28;8872;-63
2022/01/15 03:13:01;;;;;;;;;1.80;1.80;;;;;4.13;85.05;101347.09;5106192;27;8828;-64
2022/01/15 03:15:30;;;;;;;;;2.20;0.60;;;;;4.14;84.75;101347.06;5106065;28;8854;-65
2022/01/15 03:17:58;;;;;;;;;2.60;1.80;;;;;4.14;84.78;101346.19;5106419;28;8978;-63
2022/01/15 03:20:25;;;;;;;;;1.00;1.00;;;;;4.15;84.78;101342.63;5109949;27;9579;-64
2022/01/15 03:22:53;;;;;;;;;3.20;1.40;;;;;4.16;84.75;101349.63;5108193;28;8847;-62
2022/01/15 03:25:21;;;;;;;;;3.00;3.00;;;;;4.18;85.20;101347.81;5106194;28;8983;-64
2022/01/15 03:27:49;;;;;;;;;2.20;1.40;;;;;4.18;84.79;101339.91;5106540;28;8827;-64
2022/01/15 03:30:16;;;;;;;;;2.60;2.60;;;;;4.18;84.96;101337.28;5126790;27;8842;-62
2022/01/15 03:32:44;;;;;;;;;3.20;3.20;;;;;4.19;85.18;101345.13;5127344;27;8830;-63
2022/01/15 03:35:12;;;;;;;;;1.40;1.40;;;;;4.17;84.99;101341.69;5126927;27;8868;-64
2022/01/15 03:37:39;;;;;;;;;1.80;0.60;;;;;4.17;85.22;101336.41;5126800;27;8818;-64
2022/01/15 03:40:09;;;;;;;;;0.20;0.00;;;;;4.16;84.86;101332.06;5127703;27;8853;-64
2022/01/15 03:42:36;;;;;;;;;0.00;0.00;;;;;4.15;84.59;101332.97;5128280;27;8833;-64
2022/01/15 03:45:04;;;;;;;;;1.00;1.00;;;;;4.14;85.11;101330.38;5127674;27;8849;-64
2022/01/15 03:47:32;;;;;;;;;1.00;1.00;;;;;4.12;85.38;101327.78;5105359;28;8851;-63
2022/01/15 03:49:59;;;;;;;;;1.00;1.00;;;;;4.08;85.09;101320.88;5107823;27;8835;-64
2022/01/15 03:52:27;;;;;;;;;1.00;1.00;;;;;4.05;85.24;101315.69;5113713;28;8847;-63
2022/01/15 03:54:55;;;;;;;;;3.20;3.00;;;;;4.03;85.14;101319.31;5107289;28;8850;-62
2022/01/15 03:57:22;;;;;;;;;1.00;1.00;;;;;4.00;85.61;101322.03;5108191;28;8836;-62
2022/01/15 03:59:50;;;;;;;;;0.00;0.00;;;;;3.96;85.13;101326.53;5106993;28;8840;-62
2022/01/15 04:02:18;;;;;;;;;0.00;0.00;;;;;3.94;85.36;101324.84;5119521;27;8845;-62
2022/01/15 04:04:47;;;;;;;;;0.80;0.80;;;;;3.92;85.29;101318.75;5128475;27;8842;-62
2022/01/15 04:07:14;;;;;;;;;0.80;0.80;;;;;3.91;85.07;101311.78;5125816;27;8822;-65
2022/01/15 04:09:42;;;;;;;;;1.00;1.00;;;;;3.90;85.67;101307.41;5113078;27;8848;-64
2022/01/15 04:12:10;;;;;;;;;0.40;0.40;;;;;3.89;85.60;101308.34;5126740;27;8829;-62
2022/01/15 04:14:38;;;;;;;;;0.80;0.80;;;;;3.88;85.74;101306.59;5118081;28;8986;-65
2022/01/15 04:17:07;;;;;;;;;3.00;1.40;;;;;3.87;85.66;101300.47;5106954;28;8852;-62
2022/01/15 04:19:35;;;;;;;;;3.00;1.00;;;;;3.87;85.54;101294.31;5107063;28;9788;-62
2022/01/15 04:22:03;;;;;;;;;0.00;0.00;;;;;3.86;85.41;101287.34;5105691;28;8970;-64
2022/01/15 04:24:31;;;;;;;;;3.00;2.60;;;;;3.86;85.44;101292.59;5119105;27;8826;-62
2022/01/15 04:26:59;;;;;;;;;0.60;0.60;;;;;3.85;85.44;101285.59;5128062;27;8834;-64
2022/01/15 04:29:26;;;;;;;;;2.80;1.40;;;;;3.86;85.82;101295.22;5130585;27;8864;-64
2022/01/15 04:31:55;;;;;;;;;1.00;1.00;;;;;3.84;85.80;101287.41;5129569;27;9514;-63
2022/01/15 04:34:24;;;;;;;;;1.80;1.00;;;;;3.85;85.57;101298.78;5130034;27;8833;-63
2022/01/15 04:36:54;;;;;;;;;1.00;0.80;;;;;3.84;85.34;101289.16;5116897;27;8856;-62
2022/01/15 04:39:21;;;;;;;;;3.00;2.20;;;;;3.82;85.22;101280.44;5109202;28;8858;-65
2022/01/15 04:41:49;;;;;;;;;0.00;0.00;;;;;3.80;85.88;101279.66;5109740;28;9764;-64
2022/01/15 04:44:16;;;;;;;;;3.00;3.00;;;;;3.81;85.85;101284.84;5108891;28;9468;-62
2022/01/15 04:46:44;;;;;;;;;0.00;0.00;;;;;3.81;85.28;101278.72;5109201;28;8824;-66
2022/01/15 04:49:12;;;;;;;;;3.00;3.00;;;;;3.79;86.00;101275.25;5107347;28;9973;-64
2022/01/15 04:51:40;;;;;;;;;1.00;1.00;;;;;3.77;85.39;101271.81;5112786;27;8846;-64
2022/01/15 04:54:07;;;;;;;;;3.00;3.00;;;;;3.75;85.56;101258.69;5114566;27;8835;-65
2022/01/15 04:56:35;;;;;;;;;3.40;3.40;;;;;3.74;85.38;101262.22;5108190;28;8851;-65
2022/01/15 04:59:03;;;;;;;;;1.40;1.40;;;;;3.74;85.78;101261.38;5104593;27;8859;-64
2022/01/15 05:01:30;;;;;;;;;2.60;1.00;;;;;3.73;85.36;101259.66;5110848;27;9571;-63
2022/01/15 05:03:58;;;;;;;;;0.00;0.00;;;;;3.72;85.48;101262.34;5129489;27;8838;-64
2022/01/15 05:06:26;;;;;;;;;1.00;1.00;;;;;3.70;85.39;101257.09;5126937;27;8845;-63
2022/01/15 05:09:03;;;;;;;;;2.20;1.40;;;;;3.67;85.44;101258.06;5131526;27;8845;-65
2022/01/15 05:11:43;;;;;;;;;1.00;1.00;;;;;3.65;85.69;101258.16;5130132;27;8834;-64
2022/01/15 05:14:11;;;;;;;;;5.20;4.80;;;;;3.62;85.86;101256.47;5131976;27;8837;-64
2022/01/15 05:16:38;;;;;;;;;4.00;3.60;;;;;3.61;85.79;101254.75;5129881;27;8834;-63
2022/01/15 05:19:06;;;;;;;;;2.60;2.60;;;;;3.59;85.65;101258.34;5129173;27;8879;-63
2022/01/15 05:21:34;;;;;;;;;3.00;3.00;;;;;3.56;85.49;101256.66;5121986;27;8840;-64
2022/01/15 05:24:01;;;;;;;;;3.00;3.00;;;;;3.54;85.71;101242.69;5108294;28;8974;-62
2022/01/15 05:26:29;;;;;;;;;2.20;0.80;;;;;3.52;85.70;101254.16;5127413;27;8980;-62
2022/01/15 05:28:57;;;;;;;;;2.20;1.60;;;;;3.50;85.92;101251.59;5130070;27;8896;-64
2022/01/15 05:31:25;;;;;;;;;1.40;1.00;;;;;3.49;86.16;101249.84;5128507;27;8826;-64
2022/01/15 05:33:53;;;;;;;;;1.60;1.60;;;;;3.49;85.89;101263.03;5129072;27;8841;-61
2022/01/15 05:36:21;;;;;;;;;5.60;4.00;;;;;3.49;86.00;101241.09;5128936;27;8834;-63
2022/01/15 05:38:49;;;;;;;;;6.00;4.00;;;;;3.49;85.90;101243.75;5129666;27;8850;-64
2022/01/15 05:41:16;;;;;;;;;4.20;4.20;;;;;3.47;85.97;101238.50;5128704;27;8852;-63
2022/01/15 05:43:44;;;;;;;;;4.00;3.60;;;;;3.45;86.40;101240.34;5126374;27;8870;-61
2022/01/15 05:46:12;;;;;;;;;3.80;3.00;;;;;3.45;85.81;101253.50;5112066;27;8859;-64
2022/01/15 05:48:40;;;;;;;;;3.00;3.00;;;;;3.41;85.77;101246.59;5128320;27;8864;-66
2022/01/15 05:51:08;;;;;;;;;3.60;3.00;;;;;3.39;86.29;101245.78;5110399;27;8834;-64
2022/01/15 05:53:35;;;;;;;;;1.00;1.00;;;;;3.35;85.66;101249.44;5130506;27;8845;-65
2022/01/15 05:56:03;;;;;;;;;1.00;1.00;;;;;3.32;85.90;101252.13;5124929;27;8828;-64
2022/01/15 05:58:31;;;;;;;;;4.00;3.20;;;;;3.31;85.89;101255.69;5109026;28;8848;-63
2022/01/15 06:00:59;;;;;;;;;2.60;2.60;;;;;3.28;86.21;101255.78;5123479;27;8826;-64
2022/01/15 06:03:26;;;;;;;;;1.80;1.80;;;;;3.25;86.39;101247.94;5113104;27;8844;-64
2022/01/15 06:05:54;;;;;;;;;0.80;0.80;;;;;3.22;86.62;101242.78;5107552;27;8995;-63
2022/01/15 06:08:22;;;;;;;;;6.00;4.00;;;;;3.19;86.04;101248.13;5108542;27;8836;-64
2022/01/15 06:10:50;;;;;;;;;3.00;3.00;;;;;3.16;86.08;101256.13;5108567;28;8839;-64
2022/01/15 06:13:17;;;;;;;;;3.20;3.00;;;;;3.14;86.31;101260.56;5108653;27;8917;-62
2022/01/15 06:15:45;;;;;;;;;6.40;4.80;;;;;3.12;86.45;101261.50;5108019;28;8864;-64
2022/01/15 06:18:13;;;;;;;;;5.00;4.00;;;;;3.09;86.35;101259.81;5107328;27;8997;-64
2022/01/15 06:20:41;;;;;;;;;3.60;3.00;;;;;3.07;86.59;101266.03;5125582;27;9508;-64
2022/01/15 06:23:08;;;;;;;;;0.80;0.80;;;;;3.07;86.84;101260.78;5127977;27;8849;-62
2022/01/15 06:25:36;;;;;;;;;4.20;4.20;;;;;3.04;86.51;101251.19;5126785;27;8848;-62
2022/01/15 06:28:04;;;;;;;;;6.60;6.60;;;;;3.03;86.82;101267.88;5111684;27;8852;-64
2022/01/15 06:30:32;;;;;;;;;8.60;5.60;;;;;3.01;86.24;101261.81;5107642;27;8840;-63
2022/01/15 06:32:59;;;;;;;;;7.60;5.80;;;;;3.02;86.11;101258.28;5105995;28;8867;-64
2022/01/15 06:35:27;;;;;;;;;9.20;7.00;;;;;3.00;86.46;101260.09;5105321;28;9483;-64
2022/01/15 06:37:55;;;;;;;;;7.80;6.20;;;;;2.99;86.51;101258.38;5105932;28;8908;-61
2022/01/15 06:40:23;;;;;;;;;4.00;3.00;;;;;2.97;86.67;101257.56;5107091;27;8852;-64
2022/01/15 06:42:50;;;;;;;;;6.00;4.80;;;;;2.95;86.76;101261.97;5108134;27;8832;-64
2022/01/15 06:45:18;;;;;;;;;6.40;4.40;;;;;2.95;86.89;101255.88;5105311;28;8860;-62
2022/01/15 06:47:46;;;;;;;;;3.80;3.60;;;;;2.94;86.41;101251.53;5107082;27;8968;-63
2022/01/15 06:50:14;;;;;;;;;6.80;4.80;;;;;2.93;86.67;101255.91;5118899;27;9306;-64
2022/01/15 06:52:41;;;;;;;;;2.60;1.80;;;;;2.92;86.72;101251.56;5126027;27;8874;-65
2022/01/15 06:55:10;;;;;;;;;4.60;3.80;;;;;2.92;86.43;101262.06;5126853;27;8849;-63
2022/01/15 06:57:37;;;;;;;;;1.40;1.40;;;;;2.91;86.60;101260.34;5122774;27;8826;-64
2022/01/15 07:00:05;;;;;;;;;2.20;2.20;;;;;2.90;86.49;101258.63;5105097;28;8820;-64
2022/01/15 07:02:33;;;;;;;;;4.40;1.80;;;;;2.89;86.65;101262.13;5122211;27;8960;-64
2022/01/15 07:05:01;;;;;;;;;1.80;1.80;;;;;2.90;86.03;101258.63;5112622;27;8838;-64
2022/01/15 07:07:28;;;;;;;;;2.20;2.20;;;;;2.90;86.23;101257.75;5119155;27;8850;-64
2022/01/15 07:09:56;;;;;;;;;6.00;3.00;;;;;2.91;86.58;101244.56;5114550;27;8842;-64
2022/01/15 07:12:24;;;;;;;;;3.00;3.00;;;;;2.91;86.36;101252.47;5121453;27;8857;-63
2022/01/15 07:14:52;;;;;;;;;0.60;0.60;;;;;2.88;86.54;101257.78;5106557;28;8830;-63
2022/01/15 07:17:19;;;;;;;;;0.80;0.80;;;;;2.85;86.65;101257.00;5113811;27;8847;-64
2022/01/15 07:19:51;;;;;;;;;2.60;2.60;;;;;2.84;86.11;101263.19;5116497;27;8840;-64
2022/01/15 07:22:18;;;;;;;;;1.00;1.00;;;;;2.84;86.30;101253.53;5120541;27;8826;-64
2022/01/15 07:24:46;;;;;;;;;3.80;3.80;;;;;2.85;86.12;101244.72;5126268;27;8856;-62
2022/01/15 07:27:14;;;;;;;;;1.00;1.00;;;;;2.89;86.55;101251.63;5126867;27;8980;-63
2022/01/15 07:29:42;;;;;;;;;4.00;3.00;;;;;2.92;86.54;101248.03;5112636;28;8854;-64
2022/01/15 07:32:09;;;;;;;;;3.60;3.60;;;;;2.89;86.58;101246.34;5107752;28;8870;-64
2022/01/15 07:34:37;;;;;;;;;3.40;3.00;;;;;2.86;86.44;101246.44;5106362;28;8840;-62
2022/01/15 07:37:05;;;;;;;;;1.00;1.00;;;;;2.84;86.35;101240.38;5106585;27;8852;-63
2022/01/15 07:39:35;;;;;;;;;1.40;1.40;;;;;2.81;86.14;101235.19;5111486;27;8969;-65
2022/01/15 07:42:03;;;;;;;;;5.20;5.20;;;;;2.80;86.70;101243.97;5127088;27;8865;-64
2022/01/15 07:44:31;;;;;;;;;3.40;3.40;;;;;2.80;86.60;101246.63;5114132;28;8840;-64
2022/01/15 07:46:58;;;;;;;;;6.20;3.40;;;;;2.81;86.50;101234.34;5122888;27;8833;-64
2022/01/15 07:49:26;;;;;;;;;3.00;2.20;;;;;2.82;86.34;101243.94;5112555;28;8957;-62
2022/01/15 07:51:54;;;;;;;;;3.40;3.00;;;;;2.82;86.84;101233.44;5120363;27;8838;-64
2022/01/15 07:54:22;;;;;;;;;0.80;0.00;;;;;2.82;86.46;101229.06;5126081;27;8940;-64
2022/01/15 07:56:51;;;;;;;;;0.20;0.20;;;;;2.80;86.48;101220.31;5123686;27;8822;-64
2022/01/15 07:59:18;;;;;;;;;4.00;4.00;;;;;2.83;86.68;101219.38;5123004;27;8861;-64
2022/01/15 08:01:46;;;;;;;;;3.80;2.80;;;;;2.83;86.58;101227.25;5113814;27;8837;-63
2022/01/15 08:04:14;;;;;;;;;3.40;3.00;;;;;2.82;86.45;101228.19;5122498;27;8878;-64
2022/01/15 08:06:42;;;;;;;;;3.00;3.00;;;;;2.81;86.67;101224.66;5108995;28;8870;-64
2022/01/15 08:09:09;;;;;;;;;2.60;2.60;;;;;2.82;86.37;101215.91;5110399;28;8855;-65
2022/01/15 08:11:37;;;;;;;;;3.80;3.80;;;;;2.85;86.07;101215.81;5109019;27;8858;-65
2022/01/15 08:14:05;;;;;;;;;3.20;3.20;;;;;2.87;85.77;101215.78;5111712;27;8866;-63
2022/01/15 08:16:33;;;;;;;;;3.00;3.00;;;;;2.87;86.02;101216.63;5131367;27;8822;-63
2022/01/15 08:19:01;;;;;;;;;4.00;3.80;;;;;2.89;86.35;101209.53;5126165;27;8923;-65
2022/01/15 08:21:28;;;;;;;;;4.00;4.00;;;;;2.90;86.17;101213.91;5111753;27;8882;-65
2022/01/15 08:23:56;;;;;;;;;3.00;3.00;;;;;2.93;85.71;101219.06;5130103;27;9629;-64
2022/01/15 08:26:24;;;;;;;;;4.00;3.20;;;;;2.97;86.14;101212.84;5127920;27;8840;-64
2022/01/15 08:28:52;;;;;;;;;4.00;4.00;;;;;3.01;86.24;101214.47;5129603;27;8837;-63
2022/01/15 08:31:20;;;;;;;;;4.00;4.00;;;;;3.03;86.08;101207.38;5109794;27;8831;-68
2022/01/15 08:33:48;;;;;;;;;3.20;1.40;;;;;3.03;85.52;101217.91;5107865;27;8961;-62
2022/01/15 08:36:17;;;;;;;;;3.60;3.00;;;;;3.05;85.69;101215.25;5109309;27;8866;-65
2022/01/15 08:38:45;;;;;;;;;6.40;4.40;;;;;3.05;86.38;101213.47;5108966;28;8843;-64
2022/01/15 08:41:26;;;;;;;;;6.00;3.60;;;;;3.08;86.36;101220.41;5108181;27;8867;-64
2022/01/15 08:43:55;;;;;;;;;5.20;4.80;;;;;3.13;86.19;101219.38;5108857;28;8840;-65
2022/01/15 08:46:23;;;;;;;;;3.60;3.40;;;;;3.15;86.27;101216.69;5108571;27;8910;-64
2022/01/15 08:48:51;;;;;;;;;0.40;0.40;;;;;3.17;86.41;101212.25;5107078;28;8979;-64
2022/01/15 08:51:18;;;;;;;;;1.00;1.00;;;;;3.16;85.66;101219.28;5109869;27;8913;-65
2022/01/15 08:53:46;;;;;;;;;3.00;3.00;;;;;3.15;86.16;101212.28;5129140;27;8838;-64
2022/01/15 08:56:14;;;;;;;;;3.20;3.20;;;;;3.14;85.77;101209.69;5127072;27;8838;-64
2022/01/15 08:58:42;;;;;;;;;0.40;0.40;;;;;3.12;86.00;101215.03;5127159;27;8845;-65
2022/01/15 09:01:13;;;;;;;;;5.60;4.00;;;;;3.10;85.55;101213.34;5120881;27;8840;-65
2022/01/15 09:03:42;;;;;;;;;1.00;1.00;;;;;3.06;85.72;101212.56;5106137;28;8848;-64
2022/01/15 09:06:10;;;;;;;;;2.60;1.00;;;;;3.09;85.95;101206.38;5114943;27;8860;-65
2022/01/15 09:08:38;;;;;;;;;4.00;4.00;;;;;3.12;85.53;101207.13;5125697;27;8845;-64
2022/01/15 09:11:05;;;;;;;;;3.00;3.00;;;;;3.13;85.56;101210.63;5123792;27;8926;-65
2022/01/15 09:13:33;;;;;;;;;6.20;6.20;;;;;3.15;85.63;101208.78;5126111;27;8923;-64
2022/01/15 09:16:02;;;;;;;;;6.20;5.00;;;;;3.17;85.50;101207.84;5125323;27;8845;-64
2022/01/15 09:18:30;;;;;;;;;5.80;5.20;;;;;3.19;85.83;101205.19;5126819;27;8976;-65
2022/01/15 09:20:58;;;;;;;;;3.80;3.40;;;;;3.17;85.92;101207.00;5127830;27;8841;-64
2022/01/15 09:23:26;;;;;;;;;2.60;2.60;;;;;3.17;85.94;101205.22;5107100;27;9594;-65
2022/01/15 09:25:53;;;;;;;;;4.00;3.60;;;;;3.17;86.03;101210.47;5105791;27;9524;-64
2022/01/15 09:31:06;;;;;;;;;1.00;1.00;;;;;3.19;85.53;101207.81;5104934;28;8868;-64
2022/01/15 09:33:34;;;;;;;;;2.20;2.20;;;;;3.23;85.46;101199.78;5109238;27;8858;-64
2022/01/15 09:36:02;;;;;;;;;1.40;1.40;;;;;3.30;85.57;101195.19;5127080;27;8841;-65
2022/01/15 09:38:31;;;;;;;;;3.80;3.80;;;;;3.35;85.91;101194.16;5106700;27;8855;-64
2022/01/15 09:40:59;;;;;;;;;4.80;3.00;;;;;3.40;85.42;101189.59;5105545;28;8840;-65
2022/01/15 09:43:27;;;;;;;;;3.00;3.00;;;;;3.45;85.20;101189.44;5105960;27;8964;-65
2022/01/15 09:45:54;;;;;;;;;3.60;2.20;;;;;3.49;84.97;101194.56;5105481;28;8839;-62
2022/01/15 09:48:22;;;;;;;;;3.00;3.00;;;;;3.52;85.27;101186.59;5122510;27;8849;-64
2022/01/15 09:50:50;;;;;;;;;2.20;2.20;;;;;3.53;85.06;101185.69;5125262;27;8922;-65
2022/01/15 09:53:19;;;;;;;;;4.00;4.00;;;;;3.53;84.90;101193.56;5109808;27;8839;-64
2022/01/15 09:55:46;;;;;;;;;3.80;3.80;;;;;3.56;85.56;101190.84;5105976;28;9847;-65
2022/01/15 09:58:14;;;;;;;;;3.40;3.00;;;;;3.61;84.99;101188.94;5105667;28;8823;-65
2022/01/15 10:00:43;;;;;;;;;4.00;3.40;;;;;3.66;84.73;101180.88;5117729;27;8848;-61
2022/01/15 10:03:10;;;;;;;;;3.40;3.00;;;;;3.70;84.76;101186.00;5112542;27;8961;-65
2022/01/15 10:05:38;;;;;;;;;2.80;2.60;;;;;3.75;85.03;101173.56;5109460;27;8846;-64
2022/01/15 10:08:08;;;;;;;;;2.00;0.60;;;;;3.78;84.58;101175.22;5124708;27;8865;-64
2022/01/15 10:10:36;;;;;;;;;1.00;1.00;;;;;3.80;84.62;101171.66;5124166;27;8854;-64
2022/01/15 10:13:04;;;;;;;;;1.00;1.00;;;;;3.77;85.11;101165.63;5127363;27;8864;-64
2022/01/15 10:15:32;;;;;;;;;1.80;1.00;;;;;3.78;84.72;101173.44;5125057;27;8856;-65
2022/01/15 10:17:59;;;;;;;;;2.60;1.00;;;;;3.77;84.41;101176.16;5125242;27;8849;-64
2022/01/15 10:20:27;;;;;;;;;3.80;3.20;;;;;3.75;84.44;101166.50;5122346;27;8852;-64
2022/01/15 10:22:57;;;;;;;;;2.60;2.60;;;;;3.75;85.24;101165.66;5109050;27;8840;-65
2022/01/15 10:25:24;;;;;;;;;1.80;1.80;;;;;3.75;84.82;101163.03;5104147;28;8960;-64
2022/01/15 10:27:52;;;;;;;;;2.20;2.20;;;;;3.74;84.77;101161.31;5101453;27;8854;-65
2022/01/15 10:30:20;;;;;;;;;3.00;2.60;;;;;3.71;84.98;101157.91;5102177;28;8858;-64
2022/01/15 10:32:47;;;;;;;;;1.80;1.80;;;;;3.71;84.97;101158.75;5103360;27;8901;-64
2022/01/15 10:35:15;;;;;;;;;2.60;2.60;;;;;3.72;84.57;101157.84;5103965;28;8885;-64
2022/01/15 10:37:43;;;;;;;;;0.40;0.40;;;;;3.73;85.36;101159.59;5107442;27;8863;-64
2022/01/15 10:40:12;;;;;;;;;2.20;1.00;;;;;3.75;84.53;101150.69;5122934;27;9725;-63
2022/01/15 10:42:39;;;;;;;;;1.00;1.00;;;;;3.77;85.31;101150.66;5103628;28;8879;-64
2022/01/15 10:45:08;;;;;;;;;1.40;1.40;;;;;3.80;84.77;101155.84;5102573;28;8878;-64
2022/01/15 10:47:36;;;;;;;;;3.00;3.00;;;;;3.83;85.10;101150.47;5103292;28;8890;-65
2022/01/15 10:50:04;;;;;;;;;3.00;3.00;;;;;3.88;84.51;101138.00;5102869;28;8854;-65
2022/01/15 10:52:32;;;;;;;;;3.00;3.00;;;;;3.90;84.80;101136.19;5113026;27;8834;-64
2022/01/15 10:55:00;;;;;;;;;3.00;1.80;;;;;3.88;84.59;101141.47;5124188;27;9706;-65
2022/01/15 10:57:27;;;;;;;;;2.60;2.20;;;;;3.86;84.58;101140.69;5121901;27;8902;-64
2022/01/15 10:59:55;;;;;;;;;4.00;3.00;;;;;3.87;84.86;101129.22;5124246;27;8876;-64
2022/01/15 11:02:23;;;;;;;;;1.00;0.80;;;;;3.91;84.88;101135.25;5106517;27;8839;-65
2022/01/15 11:04:51;;;;;;;;;5.80;3.40;;;;;3.90;84.99;101131.75;5101798;28;8848;-64
2022/01/15 11:07:19;;;;;;;;;3.00;3.00;;;;;3.90;84.48;101125.63;5100638;28;8886;-65
2022/01/15 11:09:47;;;;;;;;;5.80;4.00;;;;;3.90;84.95;101123.00;5114582;27;8971;-64
2022/01/15 11:12:15;;;;;;;;;4.80;4.80;;;;;3.89;84.94;101123.91;5124237;27;8848;-65
2022/01/15 11:14:42;;;;;;;;;4.00;4.00;;;;;3.87;84.39;101113.44;5121942;27;9048;-65
2022/01/15 11:17:10;;;;;;;;;4.00;1.00;;;;;3.90;84.50;101118.56;5123147;27;8826;-64
2022/01/15 11:19:38;;;;;;;;;4.40;3.00;;;;;3.93;84.83;101109.72;5123366;27;8888;-63
2022/01/15 11:22:06;;;;;;;;;3.00;3.00;;;;;3.96;85.06;101109.63;5114308;27;8886;-64
2022/01/15 11:24:34;;;;;;;;;4.40;4.00;;;;;3.97;84.78;101113.97;5103571;28;8850;-62
2022/01/15 11:27:02;;;;;;;;;3.00;3.00;;;;;3.99;84.97;101104.25;5109214;27;8875;-65
2022/01/15 11:29:30;;;;;;;;;3.20;3.20;;;;;4.00;84.38;101103.31;5121295;27;9549;-65
2022/01/15 11:31:57;;;;;;;;;6.80;4.80;;;;;3.99;84.79;101096.34;5118656;27;8964;-64
2022/01/15 11:34:27;;;;;;;;;4.80;3.80;;;;;3.97;84.41;101090.28;5112915;27;9569;-65
2022/01/15 11:36:55;;;;;;;;;3.40;3.00;;;;;3.97;84.54;101093.75;5127766;27;8838;-64
2022/01/15 11:39:23;;;;;;;;;4.20;3.60;;;;;4.02;84.92;101089.19;5129131;27;8852;-64
2022/01/15 11:41:55;;;;;;;;;4.40;3.80;;;;;4.09;84.77;101087.19;5125294;27;8838;-64
2022/01/15 11:44:22;;;;;;;;;3.00;3.00;;;;;4.14;84.75;101093.16;5127538;27;8852;-65
2022/01/15 11:46:50;;;;;;;;;4.00;3.00;;;;;4.17;84.50;101087.78;5126014;27;8846;-65
2022/01/15 11:49:18;;;;;;;;;3.60;3.60;;;;;4.19;84.56;101085.97;5125590;27;8857;-62
2022/01/15 11:51:46;;;;;;;;;3.80;3.80;;;;;4.22;84.60;101084.09;5107679;28;8840;-64
2022/01/15 11:54:13;;;;;;;;;3.00;2.20;;;;;4.24;84.17;101071.72;5107191;28;8831;-64
2022/01/15 11:56:42;;;;;;;;;1.80;1.00;;;;;4.31;84.20;101074.97;5108764;28;8893;-64
2022/01/15 11:59:10;;;;;;;;;3.60;3.20;;;;;4.32;83.98;101071.41;5107154;28;8982;-62
2022/01/15 12:01:38;;;;;;;;;4.60;3.80;;;;;4.35;83.93;101071.31;5106608;28;8843;-63
2022/01/15 12:04:06;;;;;;;;;3.20;3.20;;;;;4.37;84.20;101069.47;5105292;28;8916;-64